Terminal Aerodrome Forecast
Issued by NWS Jackson, KY

Home | Current Version | Previous Version | Text Only | Print | Product List | Glossary On
Versions: 1 2 3 4 5 6 7 8 9 10 11 12 13 14 15
000
FTUS43 KJKL 250500 RRA
TAFJKL
TAF
KJKL 250539Z 2506/2606 24008KT P6SM -DZ SCT015 BKN025
     FM250800 26010KT 5SM -DZ BR OVC015
     FM251300 25008KT P6SM BKN025
     FM251900 24006KT P6SM SCT025=

USA.gov is the U.S. government's official web portal to all federal, state and local government web resources and services.